This is the latest recevied weather packets stored in our database for station/object KL7LK-13. If no packets are shown the sender has not sent any weather packets the latest 10 day(s).
| Time | Temp. | Humidity | Pressure | Rain* | Wind** | Luminosity | Snow |
|---|---|---|---|---|---|---|---|
| 1777266178 | 7.78° C | 50% | 1028.4 hPa | - | - | 16 W/m² | - |
| 1777263239 | 8.89° C | 49% | 1028.2 hPa | - | - | 30 W/m² | - |
| 1777259604 | 10.56° C | 48% | 1028.6 hPa | - | - | 67 W/m² | - |
| 1777255264 | 11.67° C | 44% | 1028.6 hPa | - | - | 128 W/m² | - |
| 1777254768 | 11.67° C | 45% | 1028.7 hPa | - | - | 119 W/m² | - |
| 1777253528 | 12.22° C | 43% | 1028.8 hPa | - | - | 166 W/m² | - |
| 1777245718 | 12.22° C | 42% | 1030.1 hPa | - | - | 339 W/m² | - |
| 1777244478 | 12.22° C | 42% | 1030.5 hPa | - | - | 334 W/m² | - |
| 1777237307 | 12.22° C | 43% | 1031.6 hPa | - | - | 431 W/m² | - |
| 1777235551 | 11.11° C | 47% | 1031.7 hPa | - | - | 328 W/m² | - |
| 1777234927 | 11.67° C | 47% | 1031.8 hPa | - | - | 332 W/m² | - |
| 1777230712 | 11.11° C | 53% | 1032.1 hPa | - | - | 333 W/m² | - |
| 1777229596 | 11.11° C | 53% | 1032.2 hPa | - | - | 346 W/m² | - |
| 1777225382 | 7.78° C | 64% | 1032.9 hPa | - | - | 252 W/m² | - |
| 1777223524 | 6.67° C | 66% | 1033.2 hPa | - | - | 154 W/m² | - |
| 1777221168 | 6.67° C | 68% | 1033.4 hPa | - | - | 71 W/m² | - |
| 1777218690 | 4.44° C | 76% | 1033.7 hPa | - | - | 39 W/m² | - |
| 1777214601 | 2.22° C | 82% | 1034 hPa | - | - | 15 W/m² | - |
| 1777213382 | 1.67° C | 84% | 1034.2 hPa | - | - | 10 W/m² | - |
| 1777211627 | 2.22° C | 84% | 1034.5 hPa | - | - | 3 W/m² | - |
| 1777203698 | 3.33° C | 78% | 1035 hPa | - | - | 0 W/m² | - |
| 1777200102 | 5° C | 72% | 1035.3 hPa | - | - | 0 W/m² | - |
| 1777198387 | 5° C | 71% | 1035.6 hPa | - | - | 0 W/m² | - |
| 1777196509 | 5° C | 71% | 1035.8 hPa | - | - | 0 W/m² | - |
| 1777194773 | 4.44° C | 73% | 1036.1 hPa | - | - | 0 W/m² | - |
* Rain since midnight (hover to see other rain measurements)
** Current wind speed in m/s (hover to see current wind gust speed)